Time;durP1;ratioP1;P1;durP2;ratioP2;P2;SDS_P1;SDS_P2;PMS_P1;PMS_P2;Temp;Humidity;BMP_temperature;BMP_pressure;BME280_temperature;BME280_humidity;BME280_pressure;Samples;Min_cycle;Max_cycle;Signal;HPM_P1;HPM_P2
2024/03/01 00:00:20;;;;;;;;;;;11.30;89.70;;;;;;5021807;28;87035;-59
2024/03/01 00:02:45;;;;;;;;;;;11.30;89.80;;;;;;5010798;28;87851;-60
2024/03/01 00:05:11;;;;;;;;;;;11.20;89.60;;;;;;5016063;28;87687;-60
2024/03/01 00:07:36;;;;;;;;;;;11.20;89.70;;;;;;5025429;28;87510;-60
2024/03/01 00:10:02;;;;;;;;;;;11.30;89.70;;;;;;5015460;28;87401;-59
2024/03/01 00:12:28;;;;;;;;;;;11.20;89.70;;;;;;5014807;28;87185;-60
2024/03/01 00:14:53;;;;;;;;;;;11.20;89.80;;;;;;5019603;28;87153;-60
2024/03/01 00:17:19;;;;;;;;;;;11.20;89.70;;;;;;5017293;28;87751;-60
2024/03/01 00:19:44;;;;;;;;;;;11.20;89.80;;;;;;5016241;28;87272;-60
2024/03/01 00:22:10;;;;;;;;;;;11.20;89.80;;;;;;5018655;28;86968;-60
2024/03/01 00:24:35;;;;;;;;;;;11.20;89.80;;;;;;5018266;28;87474;-60
2024/03/01 00:27:01;;;;;;;;;;;11.20;89.80;;;;;;5015209;28;88040;-59
2024/03/01 00:29:27;;;;;;;;;;;11.20;89.80;;;;;;5014818;28;87824;-60
2024/03/01 00:31:53;;;;;;;;;;;11.20;89.80;;;;;;5018993;28;87021;-57
2024/03/01 00:34:18;;;;;;;;;;;11.20;89.80;;;;;;5016681;28;86947;-60
2024/03/01 00:36:44;;;;;;;;;;;11.20;89.70;;;;;;5017555;28;87400;-60
2024/03/01 00:39:09;;;;;;;;;;;11.20;89.80;;;;;;5015224;28;87054;-59
2024/03/01 00:41:35;;;;;;;;;;;11.20;89.70;;;;;;5015522;28;86889;-59
2024/03/01 00:44:01;;;;;;;;;;;11.20;89.60;;;;;;5016933;28;86143;-59
2024/03/01 00:46:27;;;;;;;;;;;11.20;89.60;;;;;;5019054;28;86982;-60
2024/03/01 00:48:55;;;;;;;;;;;11.20;89.50;;;;;;5017234;28;86898;-60
2024/03/01 00:51:21;;;;;;;;;;;11.20;89.40;;;;;;5015372;28;88548;-60
2024/03/01 00:53:46;;;;;;;;;;;11.20;89.50;;;;;;5017395;28;87556;-60
2024/03/01 00:56:12;;;;;;;;;;;11.20;89.50;;;;;;5024148;28;87572;-59
2024/03/01 00:58:37;;;;;;;;;;;11.10;89.50;;;;;;5016827;28;87078;-59
2024/03/01 01:01:03;;;;;;;;;;;11.10;89.50;;;;;;5018744;28;87124;-60
2024/03/01 01:03:29;;;;;;;;;;;11.20;89.50;;;;;;5016089;28;87697;-56
2024/03/01 01:05:55;;;;;;;;;;;11.20;89.50;;;;;;5018378;28;87035;-60
2024/03/01 01:08:20;;;;;;;;;;;11.10;89.40;;;;;;5016004;28;87608;-60
2024/03/01 01:10:46;;;;;;;;;;;11.10;89.40;;;;;;5015426;28;87428;-60
2024/03/01 01:13:12;;;;;;;;;;;11.10;89.30;;;;;;5016378;28;87325;-59
2024/03/01 01:15:37;;;;;;;;;;;11.10;89.30;;;;;;5015007;28;88547;-58
2024/03/01 01:18:03;;;;;;;;;;;11.10;89.30;;;;;;5016403;28;87119;-60
2024/03/01 01:20:29;;;;;;;;;;;11.10;89.40;;;;;;5017341;28;87697;-58
2024/03/01 01:22:54;;;;;;;;;;;11.10;90.00;;;;;;5020601;28;87361;-58
2024/03/01 01:25:20;;;;;;;;;;;11.10;89.40;;;;;;5011614;28;87058;-59
2024/03/01 01:27:45;;;;;;;;;;;11.10;89.40;;;;;;5018445;28;87080;-60
2024/03/01 01:30:11;;;;;;;;;;;11.10;89.30;;;;;;5017278;28;87323;-60
2024/03/01 01:32:37;;;;;;;;;;;11.10;89.40;;;;;;5020272;28;86354;-59
2024/03/01 01:35:03;;;;;;;;;;;11.10;89.40;;;;;;5012899;28;87400;-60
2024/03/01 01:37:28;;;;;;;;;;;11.10;89.50;;;;;;5013969;28;86986;-59
2024/03/01 01:39:54;;;;;;;;;;;11.10;89.60;;;;;;5015569;28;87992;-60
2024/03/01 01:42:19;;;;;;;;;;;11.10;89.60;;;;;;5017977;28;87058;-60
2024/03/01 01:44:45;;;;;;;;;;;11.00;89.40;;;;;;5016249;28;87309;-60
2024/03/01 01:47:11;;;;;;;;;;;11.10;89.50;;;;;;5014607;28;87046;-60
2024/03/01 01:49:37;;;;;;;;;;;11.00;89.40;;;;;;5019228;28;88385;-60
2024/03/01 01:52:03;;;;;;;;;;;11.10;89.40;;;;;;5013702;28;87091;-60
2024/03/01 01:54:29;;;;;;;;;;;11.00;89.40;;;;;;5019679;28;87604;-56
2024/03/01 01:56:54;;;;;;;;;;;11.00;89.30;;;;;;5018108;28;86285;-57
2024/03/01 01:59:20;;;;;;;;;;;11.00;89.30;;;;;;5010954;28;86857;-60
2024/03/01 02:01:46;;;;;;;;;;;11.00;89.30;;;;;;5014355;28;87465;-59
2024/03/01 02:04:11;;;;;;;;;;;11.00;89.30;;;;;;5013483;28;87985;-60
2024/03/01 02:06:37;;;;;;;;;;;11.00;89.30;;;;;;5014652;28;88134;-60
2024/03/01 02:09:12;;;;;;;;;;;11.00;89.20;;;;;;5015807;28;87701;-60
2024/03/01 02:11:38;;;;;;;;;;;11.00;89.30;;;;;;5014242;28;87053;-60
2024/03/01 02:14:04;;;;;;;;;;;11.00;89.20;;;;;;5013362;28;87023;-60
2024/03/01 02:16:29;;;;;;;;;;;11.00;89.30;;;;;;5024148;28;87593;-59
2024/03/01 02:18:55;;;;;;;;;;;11.00;89.40;;;;;;5018070;28;86957;-58
2024/03/01 02:21:22;;;;;;;;;;;11.00;89.40;;;;;;5019662;28;87061;-59
2024/03/01 02:23:48;;;;;;;;;;;11.00;89.30;;;;;;5019369;28;87080;-60
2024/03/01 02:26:13;;;;;;;;;;;11.00;89.40;;;;;;5012440;28;87066;-59
2024/03/01 02:28:43;;;;;;;;;;;10.90;89.30;;;;;;5016956;28;89284;-60
2024/03/01 02:31:08;;;;;;;;;;;10.90;89.40;;;;;;5011554;28;87463;-60
2024/03/01 02:33:34;;;;;;;;;;;10.90;89.40;;;;;;5016366;28;87120;-60
2024/03/01 02:35:59;;;;;;;;;;;10.90;89.30;;;;;;5015829;28;87725;-57
2024/03/01 02:38:25;;;;;;;;;;;11.00;89.40;;;;;;5019042;28;88232;-58
2024/03/01 02:40:50;;;;;;;;;;;10.90;89.40;;;;;;5014083;28;87466;-60
2024/03/01 02:43:16;;;;;;;;;;;10.90;89.40;;;;;;5014434;28;87055;-59
2024/03/01 02:45:41;;;;;;;;;;;10.90;89.40;;;;;;5015623;28;86732;-60
2024/03/01 02:48:07;;;;;;;;;;;10.90;89.40;;;;;;5015458;28;87478;-60
2024/03/01 02:50:32;;;;;;;;;;;10.90;89.40;;;;;;5020027;28;86951;-60
2024/03/01 02:52:58;;;;;;;;;;;10.90;89.40;;;;;;5013239;28;87845;-59
2024/03/01 02:55:24;;;;;;;;;;;10.90;89.40;;;;;;5013365;28;88383;-60
2024/03/01 02:57:51;;;;;;;;;;;10.90;89.40;;;;;;5020259;28;86914;-60
2024/03/01 03:00:16;;;;;;;;;;;10.90;89.40;;;;;;5016330;28;86994;-60
2024/03/01 03:02:42;;;;;;;;;;;10.90;89.40;;;;;;5018664;28;87425;-59
2024/03/01 03:05:08;;;;;;;;;;;10.90;89.40;;;;;;5013446;28;86854;-60
2024/03/01 03:07:34;;;;;;;;;;;10.90;89.40;;;;;;5012386;28;87635;-60
2024/03/01 03:10:00;;;;;;;;;;;10.90;89.40;;;;;;5018275;28;86887;-57
2024/03/01 03:12:25;;;;;;;;;;;10.90;89.30;;;;;;5013204;28;87975;-57
2024/03/01 03:14:51;;;;;;;;;;;10.80;89.80;;;;;;5014401;28;87482;-60
2024/03/01 03:17:17;;;;;;;;;;;10.90;89.30;;;;;;5015627;28;88091;-59
2024/03/01 03:19:43;;;;;;;;;;;10.80;89.30;;;;;;5018628;28;87065;-60
2024/03/01 03:22:09;;;;;;;;;;;10.80;89.30;;;;;;5015650;28;87121;-60
2024/03/01 03:24:35;;;;;;;;;;;10.80;89.30;;;;;;5016759;28;87076;-60
2024/03/01 03:27:00;;;;;;;;;;;10.80;89.30;;;;;;5013798;28;87458;-60
2024/03/01 03:29:26;;;;;;;;;;;10.80;89.30;;;;;;5012479;28;87056;-60
2024/03/01 03:31:52;;;;;;;;;;;10.80;89.30;;;;;;5016090;28;87168;-60
2024/03/01 03:34:17;;;;;;;;;;;10.80;89.40;;;;;;5013996;28;86949;-60
2024/03/01 03:36:43;;;;;;;;;;;10.80;89.30;;;;;;5012800;28;87121;-59
2024/03/01 03:39:09;;;;;;;;;;;10.80;89.30;;;;;;5016308;28;87030;-59
2024/03/01 03:41:34;;;;;;;;;;;10.80;89.20;;;;;;5019977;28;88590;-60
2024/03/01 03:44:00;;;;;;;;;;;10.80;89.20;;;;;;5014958;28;88022;-59
2024/03/01 03:46:27;;;;;;;;;;;10.80;89.20;;;;;;5015200;28;88480;-59
2024/03/01 03:48:52;;;;;;;;;;;10.80;89.30;;;;;;5022864;28;87000;-59
2024/03/01 03:51:22;;;;;;;;;;;10.70;89.20;;;;;;5013647;28;87023;-60
2024/03/01 03:53:47;;;;;;;;;;;10.70;89.10;;;;;;5008623;28;87442;-59
2024/03/01 03:56:13;;;;;;;;;;;10.70;89.30;;;;;;5015321;28;87091;-60
2024/03/01 03:58:38;;;;;;;;;;;10.80;89.30;;;;;;5014961;28;86647;-60
2024/03/01 04:01:07;;;;;;;;;;;10.70;89.10;;;;;;5012279;28;87221;-60
2024/03/01 04:03:32;;;;;;;;;;;10.70;89.20;;;;;;5013061;28;87107;-59
2024/03/01 04:05:58;;;;;;;;;;;10.70;89.10;;;;;;5012395;28;88556;-60
2024/03/01 04:08:23;;;;;;;;;;;10.70;89.20;;;;;;5012573;28;87081;-60
2024/03/01 04:10:49;;;;;;;;;;;10.70;89.20;;;;;;5015744;28;87008;-60
2024/03/01 04:13:14;;;;;;;;;;;10.70;89.20;;;;;;5016257;28;87739;-58
2024/03/01 04:15:40;;;;;;;;;;;10.70;89.10;;;;;;5012739;28;86985;-60
2024/03/01 04:18:08;;;;;;;;;;;10.70;89.00;;;;;;5017270;28;86890;-60
2024/03/01 04:20:34;;;;;;;;;;;10.60;89.10;;;;;;5009540;28;87567;-60
2024/03/01 04:22:59;;;;;;;;;;;10.70;89.10;;;;;;5018324;28;86261;-56
2024/03/01 04:25:27;;;;;;;;;;;10.70;89.10;;;;;;5016186;28;86939;-56
2024/03/01 04:27:53;;;;;;;;;;;10.70;89.20;;;;;;5016201;28;87151;-57
2024/03/01 04:30:19;;;;;;;;;;;10.60;89.10;;;;;;5015042;28;88068;-58
2024/03/01 04:32:44;;;;;;;;;;;10.60;89.20;;;;;;5009832;28;87610;-60
2024/03/01 04:35:12;;;;;;;;;;;10.60;89.20;;;;;;5009579;28;87083;-60
2024/03/01 04:37:38;;;;;;;;;;;10.60;89.20;;;;;;5013099;28;86973;-60
2024/03/01 04:40:05;;;;;;;;;;;10.60;89.20;;;;;;5014602;28;87603;-60
2024/03/01 04:42:30;;;;;;;;;;;10.60;89.10;;;;;;5008994;28;87223;-60
2024/03/01 04:44:56;;;;;;;;;;;10.60;89.00;;;;;;5016864;28;87059;-57
2024/03/01 04:47:21;;;;;;;;;;;10.60;89.20;;;;;;5012184;28;88740;-60
2024/03/01 04:49:47;;;;;;;;;;;10.60;89.10;;;;;;5008058;28;87352;-60
2024/03/01 04:52:13;;;;;;;;;;;10.60;89.00;;;;;;5017465;28;87579;-59
2024/03/01 04:54:38;;;;;;;;;;;10.60;89.10;;;;;;5012959;28;87975;-60
2024/03/01 04:57:07;;;;;;;;;;;10.60;89.10;;;;;;5020619;28;87763;-60
2024/03/01 04:59:38;;;;;;;;;;;10.60;89.00;;;;;;5012971;28;87482;-60
2024/03/01 05:02:05;;;;;;;;;;;10.60;89.00;;;;;;5016127;28;86938;-59
2024/03/01 05:04:30;;;;;;;;;;;10.50;88.90;;;;;;5018985;28;86988;-60
2024/03/01 05:06:56;;;;;;;;;;;10.50;88.90;;;;;;5017482;28;88016;-59
2024/03/01 05:09:21;;;;;;;;;;;10.50;88.90;;;;;;5020691;28;87496;-60
2024/03/01 05:11:47;;;;;;;;;;;10.50;89.00;;;;;;5015548;28;87997;-60
2024/03/01 05:14:12;;;;;;;;;;;10.50;89.00;;;;;;5015421;28;87053;-60
2024/03/01 05:16:38;;;;;;;;;;;10.50;88.90;;;;;;5018069;28;87041;-60
2024/03/01 05:19:04;;;;;;;;;;;10.50;88.90;;;;;;5014468;28;88293;-60
2024/03/01 05:21:29;;;;;;;;;;;10.50;88.90;;;;;;5011584;28;88451;-60
2024/03/01 05:23:55;;;;;;;;;;;10.50;88.90;;;;;;5012812;28;87328;-60
2024/03/01 05:26:20;;;;;;;;;;;10.50;88.90;;;;;;5015280;28;87923;-59
2024/03/01 05:28:46;;;;;;;;;;;10.50;88.80;;;;;;5016943;28;86845;-60
2024/03/01 05:31:11;;;;;;;;;;;10.50;88.90;;;;;;5013301;28;87678;-60
2024/03/01 05:33:37;;;;;;;;;;;10.50;88.90;;;;;;5015254;28;87115;-60
2024/03/01 05:36:05;;;;;;;;;;;10.50;89.00;;;;;;5014404;28;89512;-60
2024/03/01 05:38:32;;;;;;;;;;;10.50;89.00;;;;;;5015487;28;88007;-59
2024/03/01 05:40:58;;;;;;;;;;;10.50;88.90;;;;;;5010581;28;87092;-58
2024/03/01 05:43:23;;;;;;;;;;;10.40;88.90;;;;;;5017934;28;87901;-59
2024/03/01 05:45:50;;;;;;;;;;;10.40;89.00;;;;;;5012170;28;87495;-60
2024/03/01 05:48:16;;;;;;;;;;;10.40;88.90;;;;;;5015685;28;87845;-60
2024/03/01 05:50:41;;;;;;;;;;;10.40;89.00;;;;;;5018810;28;87337;-60
2024/03/01 05:53:14;;;;;;;;;;;10.40;88.90;;;;;;5013678;28;88520;-58
2024/03/01 05:55:42;;;;;;;;;;;10.40;89.00;;;;;;5014664;28;86933;-60
2024/03/01 05:58:08;;;;;;;;;;;10.40;89.00;;;;;;5014021;28;86863;-60
2024/03/01 06:00:38;;;;;;;;;;;10.40;89.00;;;;;;5014218;28;86252;-60
2024/03/01 06:03:03;;;;;;;;;;;10.40;89.10;;;;;;5021239;28;87354;-59
2024/03/01 06:05:29;;;;;;;;;;;10.30;89.00;;;;;;5013008;28;87468;-57
2024/03/01 06:07:54;;;;;;;;;;;10.30;89.00;;;;;;5015610;28;88034;-60
2024/03/01 06:10:21;;;;;;;;;;;10.30;88.90;;;;;;5010509;28;88148;-60
2024/03/01 06:12:47;;;;;;;;;;;10.30;89.00;;;;;;5015331;28;87471;-60
2024/03/01 06:15:12;;;;;;;;;;;10.30;89.00;;;;;;5019433;28;87049;-59
2024/03/01 06:17:38;;;;;;;;;;;10.30;89.00;;;;;;5019135;28;87503;-60
2024/03/01 06:20:04;;;;;;;;;;;10.30;89.00;;;;;;5009134;28;87629;-60
2024/03/01 06:22:30;;;;;;;;;;;10.40;89.10;;;;;;5012278;28;89735;-58
2024/03/01 06:24:56;;;;;;;;;;;10.30;89.10;;;;;;5018359;28;87159;-57
2024/03/01 06:27:21;;;;;;;;;;;10.30;89.00;;;;;;5013381;28;87428;-60
2024/03/01 06:29:48;;;;;;;;;;;10.30;89.10;;;;;;5014338;28;87861;-60
2024/03/01 06:32:14;;;;;;;;;;;10.30;89.00;;;;;;5009545;28;89835;-59
2024/03/01 06:34:40;;;;;;;;;;;10.30;89.10;;;;;;5019783;28;86999;-59
2024/03/01 06:37:05;;;;;;;;;;;10.30;89.00;;;;;;5012507;28;87830;-59
2024/03/01 06:39:31;;;;;;;;;;;10.30;89.10;;;;;;5014413;28;87040;-59
2024/03/01 06:41:56;;;;;;;;;;;10.30;89.10;;;;;;5014756;28;88276;-59
2024/03/01 06:44:25;;;;;;;;;;;10.30;89.00;;;;;;5018239;28;87534;-60
2024/03/01 06:46:51;;;;;;;;;;;10.30;89.20;;;;;;5017112;28;86978;-61
2024/03/01 06:49:17;;;;;;;;;;;10.20;89.10;;;;;;5012769;28;86955;-59
2024/03/01 06:51:42;;;;;;;;;;;10.30;89.20;;;;;;5012097;28;88128;-59
2024/03/01 06:54:08;;;;;;;;;;;10.20;89.20;;;;;;5012513;28;87001;-59
2024/03/01 06:56:38;;;;;;;;;;;10.20;89.20;;;;;;5013988;28;87882;-60
2024/03/01 06:59:04;;;;;;;;;;;10.30;89.30;;;;;;5010392;28;87105;-60
2024/03/01 07:01:29;;;;;;;;;;;10.30;89.30;;;;;;5012258;28;87601;-60
2024/03/01 07:03:55;;;;;;;;;;;10.30;89.30;;;;;;5011526;28;88738;-60
2024/03/01 07:06:20;;;;;;;;;;;10.20;89.20;;;;;;5012065;28;87066;-60
2024/03/01 07:08:46;;;;;;;;;;;10.30;89.20;;;;;;5011021;28;87588;-60
2024/03/01 07:11:12;;;;;;;;;;;10.30;89.20;;;;;;5010387;28;87917;-60
2024/03/01 07:13:37;;;;;;;;;;;10.20;89.20;;;;;;5018770;28;86545;-60
2024/03/01 07:16:03;;;;;;;;;;;10.20;89.20;;;;;;5015276;28;87008;-58
2024/03/01 07:18:28;;;;;;;;;;;10.20;89.20;;;;;;5013458;28;87605;-59
2024/03/01 07:20:54;;;;;;;;;;;10.30;89.20;;;;;;5010739;28;87919;-60
2024/03/01 07:23:20;;;;;;;;;;;10.20;89.20;;;;;;5017932;28;88035;-60
2024/03/01 07:25:45;;;;;;;;;;;10.20;89.20;;;;;;5013754;28;88044;-60
2024/03/01 07:28:11;;;;;;;;;;;10.20;89.20;;;;;;5009246;28;87001;-58
2024/03/01 07:30:38;;;;;;;;;;;10.20;89.20;;;;;;5010423;28;88209;-60
2024/03/01 07:33:04;;;;;;;;;;;10.20;89.30;;;;;;5012402;28;86961;-59
2024/03/01 07:35:30;;;;;;;;;;;10.20;89.30;;;;;;5015176;28;87976;-58
2024/03/01 07:37:55;;;;;;;;;;;10.20;89.30;;;;;;5012656;28;87894;-56
2024/03/01 07:40:22;;;;;;;;;;;10.20;89.30;;;;;;5009829;28;87460;-60
2024/03/01 07:42:47;;;;;;;;;;;10.20;89.30;;;;;;5016802;28;87714;-60
2024/03/01 07:45:13;;;;;;;;;;;10.20;89.40;;;;;;5014221;28;87928;-60
2024/03/01 07:47:42;;;;;;;;;;;10.20;89.50;;;;;;5010966;28;87847;-60
2024/03/01 07:50:08;;;;;;;;;;;10.20;89.40;;;;;;5012506;28;87581;-59
2024/03/01 07:52:33;;;;;;;;;;;10.20;89.40;;;;;;5014053;28;87009;-60
2024/03/01 07:54:59;;;;;;;;;;;10.20;89.40;;;;;;5012897;28;88029;-60
2024/03/01 07:57:25;;;;;;;;;;;10.20;90.00;;;;;;5013656;28;88435;-60
2024/03/01 07:59:51;;;;;;;;;;;10.20;89.50;;;;;;5015898;28;87933;-59
2024/03/01 08:02:17;;;;;;;;;;;10.20;89.60;;;;;;5010185;28;86898;-60
2024/03/01 08:04:43;;;;;;;;;;;10.20;89.40;;;;;;5010673;28;86988;-60
2024/03/01 08:07:08;;;;;;;;;;;10.20;89.50;;;;;;5011776;28;87015;-60
2024/03/01 08:09:36;;;;;;;;;;;10.20;89.50;;;;;;5011850;28;90966;-60
2024/03/01 08:12:04;;;;;;;;;;;10.20;89.50;;;;;;5012479;28;87131;-60
2024/03/01 08:14:31;;;;;;;;;;;10.20;89.50;;;;;;5009669;28;87365;-60
2024/03/01 08:16:57;;;;;;;;;;;10.20;89.50;;;;;;5012803;28;88206;-57
2024/03/01 08:19:33;;;;;;;;;;;10.20;90.00;;;;;;5012051;28;87102;-60
2024/03/01 08:22:19;;;;;;;;;;;10.20;89.60;;;;;;5014376;28;87071;-60
2024/03/01 08:24:48;;;;;;;;;;;10.10;89.60;;;;;;5011507;28;87776;-60
2024/03/01 08:27:21;;;;;;;;;;;10.20;89.60;;;;;;5012971;28;86871;-60
2024/03/01 08:29:47;;;;;;;;;;;10.20;89.60;;;;;;5017936;28;87922;-60
2024/03/01 08:32:22;;;;;;;;;;;10.20;89.60;;;;;;5016920;28;87280;-59
2024/03/01 08:34:51;;;;;;;;;;;10.10;89.70;;;;;;5020520;28;88138;-60
2024/03/01 08:37:22;;;;;;;;;;;10.10;89.70;;;;;;5013556;28;87447;-60
2024/03/01 08:39:47;;;;;;;;;;;10.10;89.70;;;;;;5020222;28;87414;-60
2024/03/01 08:42:14;;;;;;;;;;;10.10;89.60;;;;;;5020414;28;86976;-60
2024/03/01 08:44:58;;;;;;;;;;;10.10;89.70;;;;;;5016534;28;88178;-60
2024/03/01 08:47:25;;;;;;;;;;;10.10;89.60;;;;;;5011046;28;87064;-60
2024/03/01 08:49:53;;;;;;;;;;;10.10;89.70;;;;;;5017688;28;88627;-60
2024/03/01 08:52:35;;;;;;;;;;;10.10;89.60;;;;;;5014553;28;86957;-60
2024/03/01 08:55:09;;;;;;;;;;;10.20;89.80;;;;;;5011583;28;87256;-59
2024/03/01 08:57:36;;;;;;;;;;;10.10;89.70;;;;;;5015498;28;87304;-60
2024/03/01 09:00:02;;;;;;;;;;;10.20;89.70;;;;;;5016880;28;88043;-59
2024/03/01 09:02:45;;;;;;;;;;;10.10;89.70;;;;;;5013567;28;87880;-59
2024/03/01 09:05:11;;;;;;;;;;;10.10;89.70;;;;;;5013159;28;87584;-58
2024/03/01 09:07:37;;;;;;;;;;;10.10;89.60;;;;;;5026564;28;86948;-60
2024/03/01 09:10:05;;;;;;;;;;;10.10;89.80;;;;;;5021015;28;87470;-59
2024/03/01 09:12:30;;;;;;;;;;;10.10;89.70;;;;;;5017622;28;88193;-56
2024/03/01 09:15:00;;;;;;;;;;;10.10;89.70;;;;;;5016333;28;87227;-57
2024/03/01 09:17:26;;;;;;;;;;;10.10;89.80;;;;;;5016203;28;87262;-56
2024/03/01 09:19:51;;;;;;;;;;;10.20;89.80;;;;;;5016087;28;86998;-60
2024/03/01 09:22:17;;;;;;;;;;;10.10;89.70;;;;;;5011511;28;87387;-60
2024/03/01 09:24:44;;;;;;;;;;;10.20;89.70;;;;;;5012819;28;88301;-58
2024/03/01 09:27:16;;;;;;;;;;;10.20;89.80;;;;;;5016368;28;86998;-60
2024/03/01 09:29:44;;;;;;;;;;;10.10;89.60;;;;;;5016841;28;87007;-60
2024/03/01 09:32:10;;;;;;;;;;;10.20;89.70;;;;;;5011675;28;87157;-60
2024/03/01 09:34:36;;;;;;;;;;;10.20;89.60;;;;;;5017710;28;87105;-60
2024/03/01 09:37:03;;;;;;;;;;;10.20;89.60;;;;;;5019386;28;87526;-60
2024/03/01 09:39:30;;;;;;;;;;;10.20;89.50;;;;;;5019000;28;87282;-60
2024/03/01 09:42:28;;;;;;;;;;;10.20;89.50;;;;;;5011649;28;87934;-58
2024/03/01 09:45:08;;;;;;;;;;;10.20;89.60;;;;;;5005841;28;87497;-60
2024/03/01 09:47:48;;;;;;;;;;;10.20;89.70;;;;;;5014745;28;87326;-60
2024/03/01 09:50:33;;;;;;;;;;;10.20;90.10;;;;;;5015988;28;87956;-59
2024/03/01 09:53:17;;;;;;;;;;;10.20;89.60;;;;;;5013914;28;87905;-60
2024/03/01 09:55:50;;;;;;;;;;;10.20;89.50;;;;;;5013901;28;87084;-57
2024/03/01 09:58:21;;;;;;;;;;;10.10;89.60;;;;;;5018593;28;87500;-60
2024/03/01 10:00:52;;;;;;;;;;;10.20;89.60;;;;;;5013765;28;87073;-60
2024/03/01 10:03:44;;;;;;;;;;;10.20;89.70;;;;;;5015382;28;89800;-60
2024/03/01 10:06:19;;;;;;;;;;;10.20;89.60;;;;;;5013243;28;88590;-60
2024/03/01 10:08:55;;;;;;;;;;;10.20;89.70;;;;;;5019369;28;86335;-59
2024/03/01 10:11:40;;;;;;;;;;;10.20;89.70;;;;;;5014299;28;87352;-60
2024/03/01 10:14:33;;;;;;;;;;;10.20;89.80;;;;;;5015466;28;87968;-58
2024/03/01 10:17:11;;;;;;;;;;;10.20;89.80;;;;;;5013025;28;87827;-60
2024/03/01 10:19:42;;;;;;;;;;;10.20;89.70;;;;;;5015324;28;87690;-59
2024/03/01 10:22:19;;;;;;;;;;;10.20;89.90;;;;;;5009488;28;86963;-59
2024/03/01 10:24:48;;;;;;;;;;;10.20;89.80;;;;;;5012992;28;87905;-56
2024/03/01 10:27:34;;;;;;;;;;;10.20;89.90;;;;;;5014256;28;87618;-60
2024/03/01 10:30:06;;;;;;;;;;;10.20;89.90;;;;;;5005300;28;87089;-60
2024/03/01 10:32:40;;;;;;;;;;;10.20;89.90;;;;;;5013169;28;87562;-58
2024/03/01 10:35:25;;;;;;;;;;;10.20;89.80;;;;;;5011379;28;87161;-60
2024/03/01 10:37:56;;;;;;;;;;;10.20;89.80;;;;;;5012321;28;87521;-60
2024/03/01 10:40:23;;;;;;;;;;;10.20;89.90;;;;;;5017006;28;88605;-59
2024/03/01 10:42:53;;;;;;;;;;;10.20;89.80;;;;;;5012292;28;87997;-60
2024/03/01 10:45:23;;;;;;;;;;;10.20;89.90;;;;;;5011612;28;88044;-60
2024/03/01 10:47:50;;;;;;;;;;;10.30;89.90;;;;;;5010482;28;87460;-60
2024/03/01 10:50:22;;;;;;;;;;;10.30;90.00;;;;;;5011010;28;87797;-59
2024/03/01 10:52:57;;;;;;;;;;;10.30;90.00;;;;;;5008853;28;87146;-60
2024/03/01 10:55:24;;;;;;;;;;;10.30;90.00;;;;;;5013705;28;87579;-60
2024/03/01 10:58:09;;;;;;;;;;;10.20;90.00;;;;;;5014163;28;88762;-59
2024/03/01 11:00:41;;;;;;;;;;;10.20;90.10;;;;;;5019109;28;86951;-60
2024/03/01 11:03:22;;;;;;;;;;;10.30;90.00;;;;;;5019373;28;86847;-60
2024/03/01 11:06:14;;;;;;;;;;;10.20;90.00;;;;;;5011866;28;87039;-58
2024/03/01 11:08:43;;;;;;;;;;;10.30;90.10;;;;;;5009087;28;88447;-60
2024/03/01 11:11:14;;;;;;;;;;;10.20;90.10;;;;;;5014783;28;87027;-60
2024/03/01 11:13:41;;;;;;;;;;;10.30;90.10;;;;;;5013830;28;87063;-60
2024/03/01 11:16:09;;;;;;;;;;;10.30;90.20;;;;;;5011511;28;87533;-61
2024/03/01 11:18:40;;;;;;;;;;;10.20;90.10;;;;;;5014124;28;87037;-60
2024/03/01 11:21:09;;;;;;;;;;;10.30;90.10;;;;;;5015186;28;87324;-60
2024/03/01 11:23:39;;;;;;;;;;;10.30;90.10;;;;;;5011859;28;88530;-60
2024/03/01 11:26:10;;;;;;;;;;;10.20;90.20;;;;;;5015830;28;86781;-58
2024/03/01 11:28:38;;;;;;;;;;;10.20;90.20;;;;;;5014340;28;87616;-60
2024/03/01 11:31:07;;;;;;;;;;;10.30;90.20;;;;;;5016392;27;87359;-60
2024/03/01 11:33:36;;;;;;;;;;;10.30;90.10;;;;;;5020330;28;87966;-60
2024/03/01 11:36:11;;;;;;;;;;;10.30;90.20;;;;;;5015358;28;87970;-58
2024/03/01 11:38:39;;;;;;;;;;;10.30;90.20;;;;;;5015578;28;88102;-60
2024/03/01 11:41:21;;;;;;;;;;;10.30;90.20;;;;;;5011107;28;87418;-60
2024/03/01 11:43:58;;;;;;;;;;;10.30;90.20;;;;;;5011234;28;87495;-60
2024/03/01 11:46:27;;;;;;;;;;;10.30;90.20;;;;;;5014193;28;87136;-60
2024/03/01 11:49:27;;;;;;;;;;;10.30;90.20;;;;;;5008657;28;87182;-60
2024/03/01 11:52:03;;;;;;;;;;;10.40;90.30;;;;;;5001113;28;86327;-60
2024/03/01 11:54:47;;;;;;;;;;;10.30;90.30;;;;;;5018921;28;86932;-60
2024/03/01 11:57:29;;;;;;;;;;;10.30;90.30;;;;;;5012104;28;88558;-60
2024/03/01 12:00:08;;;;;;;;;;;10.30;90.30;;;;;;5016194;28;87869;-60
2024/03/01 12:02:38;;;;;;;;;;;10.30;90.40;;;;;;5016262;28;86983;-60
2024/03/01 12:05:04;;;;;;;;;;;10.40;90.30;;;;;;5011178;28;87397;-59
2024/03/01 12:07:30;;;;;;;;;;;10.40;90.30;;;;;;5017541;28;87144;-60
2024/03/01 12:10:02;;;;;;;;;;;10.40;90.40;;;;;;5015559;28;87462;-60
2024/03/01 12:12:40;;;;;;;;;;;10.30;90.30;;;;;;5016905;28;87357;-57
2024/03/01 12:15:08;;;;;;;;;;;10.40;90.40;;;;;;5014600;28;87994;-60
2024/03/01 12:17:43;;;;;;;;;;;10.40;90.40;;;;;;5013536;28;87684;-60
2024/03/01 12:20:10;;;;;;;;;;;10.40;90.40;;;;;;5014332;28;86965;-59
2024/03/01 12:22:54;;;;;;;;;;;10.40;90.40;;;;;;5016235;28;87734;-58
2024/03/01 12:25:22;;;;;;;;;;;10.40;90.40;;;;;;5017923;28;88463;-59
2024/03/01 12:27:51;;;;;;;;;;;10.40;90.50;;;;;;5016702;28;87100;-60
2024/03/01 12:30:23;;;;;;;;;;;10.40;90.50;;;;;;5023658;28;87514;-60
2024/03/01 12:33:08;;;;;;;;;;;10.40;90.50;;;;;;5013218;28;87239;-59
2024/03/01 12:35:42;;;;;;;;;;;10.30;90.60;;;;;;5014870;28;87089;-60
2024/03/01 12:38:11;;;;;;;;;;;10.30;90.50;;;;;;5016877;28;89701;-60
2024/03/01 12:41:04;;;;;;;;;;;10.40;90.50;;;;;;5016154;28;87349;-60
2024/03/01 12:43:38;;;;;;;;;;;10.40;90.50;;;;;;5016020;28;87650;-60
2024/03/01 12:46:16;;;;;;;;;;;10.40;90.50;;;;;;5012184;28;87644;-60
2024/03/01 12:49:00;;;;;;;;;;;10.40;90.60;;;;;;5010744;28;87012;-60
2024/03/01 12:51:26;;;;;;;;;;;10.40;90.50;;;;;;5017034;28;88024;-60
2024/03/01 12:54:00;;;;;;;;;;;10.40;90.50;;;;;;5018489;28;87706;-60
2024/03/01 12:56:26;;;;;;;;;;;10.40;90.50;;;;;;5011053;28;87030;-60
2024/03/01 12:59:11;;;;;;;;;;;10.40;90.60;;;;;;5020942;28;87613;-60
2024/03/01 13:01:43;;;;;;;;;;;10.40;90.60;;;;;;5014772;28;87580;-60
2024/03/01 13:04:20;;;;;;;;;;;10.40;90.60;;;;;;5017073;28;86965;-60
2024/03/01 13:06:47;;;;;;;;;;;10.40;90.60;;;;;;5014074;28;87694;-60
2024/03/01 13:09:19;;;;;;;;;;;10.40;90.60;;;;;;5014113;28;86579;-60
2024/03/01 13:11:48;;;;;;;;;;;10.40;90.70;;;;;;5013878;28;87000;-59
2024/03/01 13:14:17;;;;;;;;;;;10.40;90.70;;;;;;5015875;28;87657;-60
2024/03/01 13:16:43;;;;;;;;;;;10.40;90.70;;;;;;5020393;28;88344;-60
2024/03/01 13:19:23;;;;;;;;;;;10.40;90.70;;;;;;5016589;28;87496;-60
2024/03/01 13:21:58;;;;;;;;;;;10.50;90.70;;;;;;5011890;28;87041;-60
2024/03/01 13:24:27;;;;;;;;;;;10.50;90.70;;;;;;5017238;28;86965;-60
2024/03/01 13:26:58;;;;;;;;;;;10.50;90.70;;;;;;5015912;28;88866;-60
2024/03/01 13:29:25;;;;;;;;;;;10.50;90.80;;;;;;5018686;28;88620;-60
2024/03/01 13:32:03;;;;;;;;;;;10.50;90.90;;;;;;5012877;28;87014;-60
2024/03/01 13:34:31;;;;;;;;;;;10.50;90.80;;;;;;5013737;28;86986;-59
2024/03/01 13:37:20;;;;;;;;;;;10.50;90.90;;;;;;5014798;28;87007;-60
2024/03/01 13:39:57;;;;;;;;;;;10.50;90.90;;;;;;5015755;28;87048;-59
2024/03/01 13:42:49;;;;;;;;;;;10.50;91.00;;;;;;5015321;28;88508;-60
2024/03/01 13:45:20;;;;;;;;;;;10.40;91.00;;;;;;5002683;28;88756;-60
2024/03/01 13:47:51;;;;;;;;;;;10.50;91.00;;;;;;5018341;28;87230;-60
2024/03/01 13:50:30;;;;;;;;;;;10.50;90.90;;;;;;5018426;28;88410;-59
2024/03/01 13:52:57;;;;;;;;;;;10.50;91.10;;;;;;5012139;28;86973;-60
2024/03/01 13:55:23;;;;;;;;;;;10.50;91.00;;;;;;5014900;28;88549;-60
2024/03/01 13:57:48;;;;;;;;;;;10.50;91.00;;;;;;5020292;28;87452;-59
2024/03/01 14:00:22;;;;;;;;;;;10.50;91.10;;;;;;5017887;28;87030;-60
2024/03/01 14:02:48;;;;;;;;;;;10.50;91.10;;;;;;5012681;28;87793;-57
2024/03/01 14:05:14;;;;;;;;;;;10.30;88.80;;;;;;5011521;28;87046;-52
2024/03/01 14:07:44;;;;;;;;;;;10.20;87.30;;;;;;5010308;28;89531;-53
2024/03/01 14:10:10;;;;;;;;;;;10.20;87.10;;;;;;5012209;28;86992;-57
2024/03/01 14:12:35;;;;;;;;;;;10.20;87.20;;;;;;5009356;28;86988;-60
2024/03/01 14:15:03;;;;;;;;;;;10.20;88.20;;;;;;5017504;28;87485;-60
2024/03/01 14:17:28;;;;;;;;;;;10.20;89.40;;;;;;5018486;28;86907;-49
2024/03/01 14:19:54;;;;;;;;;;;10.20;89.60;;;;;;5012219;28;87116;-58
2024/03/01 14:22:19;;;;;;;;;;;10.20;89.80;;;;;;5017552;28;87498;-57
2024/03/01 14:24:45;;;;;;;;;;;10.30;89.50;;;;;;5014665;28;87771;-56